sensor_id;sensor_type;location;lat;lon;timestamp;temperature;humidity
27759;DHT22;15148;48.972;12.794;2023-09-30T00:01:44;15.80;99.90
27759;DHT22;15148;48.972;12.794;2023-09-30T00:06:46;15.70;99.90
27759;DHT22;15148;48.972;12.794;2023-09-30T00:11:48;15.60;99.90
27759;DHT22;15148;48.972;12.794;2023-09-30T00:16:50;15.50;99.90
27759;DHT22;15148;48.972;12.794;2023-09-30T00:21:53;15.40;99.90
27759;DHT22;15148;48.972;12.794;2023-09-30T00:26:55;15.40;99.90
27759;DHT22;15148;48.972;12.794;2023-09-30T00:31:58;15.30;99.90
27759;DHT22;15148;48.972;12.794;2023-09-30T00:37:00;15.20;99.90
27759;DHT22;15148;48.972;12.794;2023-09-30T00:42:02;15.10;99.90
27759;DHT22;15148;48.972;12.794;2023-09-30T00:47:07;15.10;99.90
27759;DHT22;15148;48.972;12.794;2023-09-30T00:52:11;15.10;99.90
27759;DHT22;15148;48.972;12.794;2023-09-30T00:57:14;15.20;99.90
27759;DHT22;15148;48.972;12.794;2023-09-30T01:02:18;15.30;99.90
27759;DHT22;15148;48.972;12.794;2023-09-30T01:07:20;15.30;99.90
27759;DHT22;15148;48.972;12.794;2023-09-30T01:12:23;15.30;99.90
27759;DHT22;15148;48.972;12.794;2023-09-30T01:17:25;15.30;99.90
27759;DHT22;15148;48.972;12.794;2023-09-30T01:22:28;15.30;99.90
27759;DHT22;15148;48.972;12.794;2023-09-30T01:27:31;15.40;99.90
27759;DHT22;15148;48.972;12.794;2023-09-30T01:32:33;15.40;99.90
27759;DHT22;15148;48.972;12.794;2023-09-30T01:37:36;15.40;99.90
27759;DHT22;15148;48.972;12.794;2023-09-30T01:42:38;15.40;99.90
27759;DHT22;15148;48.972;12.794;2023-09-30T01:47:40;15.40;99.90
27759;DHT22;15148;48.972;12.794;2023-09-30T01:52:42;15.40;99.90
27759;DHT22;15148;48.972;12.794;2023-09-30T01:57:44;15.50;99.90
27759;DHT22;15148;48.972;12.794;2023-09-30T02:02:46;15.50;99.90
27759;DHT22;15148;48.972;12.794;2023-09-30T02:07:49;15.50;99.90
27759;DHT22;15148;48.972;12.794;2023-09-30T02:12:51;15.50;99.90
27759;DHT22;15148;48.972;12.794;2023-09-30T02:17:53;15.50;99.90
27759;DHT22;15148;48.972;12.794;2023-09-30T02:22:56;15.60;99.90
27759;DHT22;15148;48.972;12.794;2023-09-30T02:27:59;15.60;99.90
27759;DHT22;15148;48.972;12.794;2023-09-30T02:33:02;15.60;99.90
27759;DHT22;15148;48.972;12.794;2023-09-30T02:38:05;15.60;99.90
27759;DHT22;15148;48.972;12.794;2023-09-30T02:43:09;15.60;99.90
27759;DHT22;15148;48.972;12.794;2023-09-30T02:48:11;15.60;99.90
27759;DHT22;15148;48.972;12.794;2023-09-30T02:53:13;15.60;99.90
27759;DHT22;15148;48.972;12.794;2023-09-30T02:58:15;15.50;99.90
27759;DHT22;15148;48.972;12.794;2023-09-30T03:03:17;15.40;99.90
27759;DHT22;15148;48.972;12.794;2023-09-30T03:08:19;15.30;99.90
27759;DHT22;15148;48.972;12.794;2023-09-30T03:13:21;15.10;99.90
27759;DHT22;15148;48.972;12.794;2023-09-30T03:18:23;15.10;99.90
27759;DHT22;15148;48.972;12.794;2023-09-30T03:23:30;15.00;99.90
27759;DHT22;15148;48.972;12.794;2023-09-30T03:28:32;15.10;99.90
27759;DHT22;15148;48.972;12.794;2023-09-30T03:33:35;15.10;99.90
27759;DHT22;15148;48.972;12.794;2023-09-30T03:38:37;15.10;99.90
27759;DHT22;15148;48.972;12.794;2023-09-30T03:43:39;15.10;99.90
27759;DHT22;15148;48.972;12.794;2023-09-30T03:48:43;15.10;99.90
27759;DHT22;15148;48.972;12.794;2023-09-30T03:53:46;15.10;99.90
27759;DHT22;15148;48.972;12.794;2023-09-30T03:58:49;15.10;99.90
27759;DHT22;15148;48.972;12.794;2023-09-30T04:03:51;15.10;99.90
27759;DHT22;15148;48.972;12.794;2023-09-30T04:08:57;15.10;99.90
27759;DHT22;15148;48.972;12.794;2023-09-30T04:14:00;15.10;99.90
27759;DHT22;15148;48.972;12.794;2023-09-30T04:19:02;15.10;99.90
27759;DHT22;15148;48.972;12.794;2023-09-30T04:24:04;15.10;99.90
27759;DHT22;15148;48.972;12.794;2023-09-30T04:29:07;15.10;99.90
27759;DHT22;15148;48.972;12.794;2023-09-30T04:34:12;15.20;99.90
27759;DHT22;15148;48.972;12.794;2023-09-30T04:39:15;15.20;99.90
27759;DHT22;15148;48.972;12.794;2023-09-30T04:44:17;15.20;99.90
27759;DHT22;15148;48.972;12.794;2023-09-30T04:49:19;15.20;99.90
27759;DHT22;15148;48.972;12.794;2023-09-30T04:54:22;15.20;99.90
27759;DHT22;15148;48.972;12.794;2023-09-30T04:59:24;15.20;99.90
27759;DHT22;15148;48.972;12.794;2023-09-30T05:04:27;15.20;99.90
27759;DHT22;15148;48.972;12.794;2023-09-30T05:09:29;15.20;99.90
27759;DHT22;15148;48.972;12.794;2023-09-30T05:14:31;15.30;99.90
27759;DHT22;15148;48.972;12.794;2023-09-30T05:19:33;15.20;99.90
27759;DHT22;15148;48.972;12.794;2023-09-30T05:24:35;15.30;99.90
27759;DHT22;15148;48.972;12.794;2023-09-30T05:29:37;15.30;99.90
27759;DHT22;15148;48.972;12.794;2023-09-30T05:34:39;15.30;99.90
27759;DHT22;15148;48.972;12.794;2023-09-30T05:39:40;15.30;99.90
27759;DHT22;15148;48.972;12.794;2023-09-30T05:44:42;15.40;99.90
27759;DHT22;15148;48.972;12.794;2023-09-30T05:49:44;15.50;99.90
27759;DHT22;15148;48.972;12.794;2023-09-30T05:54:46;15.40;99.90
27759;DHT22;15148;48.972;12.794;2023-09-30T05:59:50;15.40;99.90
27759;DHT22;15148;48.972;12.794;2023-09-30T06:04:52;15.50;99.90
27759;DHT22;15148;48.972;12.794;2023-09-30T06:09:55;15.50;99.90
27759;DHT22;15148;48.972;12.794;2023-09-30T06:14:57;15.50;99.90
27759;DHT22;15148;48.972;12.794;2023-09-30T06:20:00;15.60;99.90
27759;DHT22;15148;48.972;12.794;2023-09-30T06:25:09;15.60;99.90
27759;DHT22;15148;48.972;12.794;2023-09-30T06:30:12;15.70;99.90
27759;DHT22;15148;48.972;12.794;2023-09-30T06:35:15;15.70;99.90
27759;DHT22;15148;48.972;12.794;2023-09-30T06:40:17;15.80;99.90
27759;DHT22;15148;48.972;12.794;2023-09-30T06:45:19;15.90;99.90
27759;DHT22;15148;48.972;12.794;2023-09-30T06:50:21;15.90;99.90
27759;DHT22;15148;48.972;12.794;2023-09-30T06:55:23;15.90;99.90
27759;DHT22;15148;48.972;12.794;2023-09-30T07:00:26;15.90;99.90
27759;DHT22;15148;48.972;12.794;2023-09-30T07:05:29;16.00;99.90
27759;DHT22;15148;48.972;12.794;2023-09-30T07:10:31;15.90;99.90
27759;DHT22;15148;48.972;12.794;2023-09-30T07:15:32;15.90;99.90
27759;DHT22;15148;48.972;12.794;2023-09-30T07:20:34;16.00;99.90
27759;DHT22;15148;48.972;12.794;2023-09-30T07:25:37;15.90;99.90
27759;DHT22;15148;48.972;12.794;2023-09-30T07:30:39;15.90;99.90
27759;DHT22;15148;48.972;12.794;2023-09-30T07:35:42;16.00;99.90
27759;DHT22;15148;48.972;12.794;2023-09-30T07:40:44;15.90;99.90
27759;DHT22;15148;48.972;12.794;2023-09-30T07:45:46;16.00;99.90
27759;DHT22;15148;48.972;12.794;2023-09-30T07:50:49;16.00;99.90
27759;DHT22;15148;48.972;12.794;2023-09-30T07:55:51;16.00;99.90
27759;DHT22;15148;48.972;12.794;2023-09-30T08:00:54;16.10;99.90
27759;DHT22;15148;48.972;12.794;2023-09-30T08:05:56;16.10;99.90
27759;DHT22;15148;48.972;12.794;2023-09-30T08:10:57;16.20;99.90
27759;DHT22;15148;48.972;12.794;2023-09-30T08:15:59;16.20;99.90
27759;DHT22;15148;48.972;12.794;2023-09-30T08:21:01;16.20;99.90
27759;DHT22;15148;48.972;12.794;2023-09-30T08:26:05;16.20;99.90
27759;DHT22;15148;48.972;12.794;2023-09-30T08:31:07;16.20;99.90
27759;DHT22;15148;48.972;12.794;2023-09-30T08:36:11;16.20;99.90
27759;DHT22;15148;48.972;12.794;2023-09-30T08:41:30;16.10;99.90
27759;DHT22;15148;48.972;12.794;2023-09-30T08:46:34;16.20;99.90
27759;DHT22;15148;48.972;12.794;2023-09-30T08:51:36;16.30;99.90
27759;DHT22;15148;48.972;12.794;2023-09-30T08:56:45;16.30;99.90
27759;DHT22;15148;48.972;12.794;2023-09-30T09:01:48;16.40;99.90
27759;DHT22;15148;48.972;12.794;2023-09-30T09:06:56;16.50;99.90
27759;DHT22;15148;48.972;12.794;2023-09-30T09:11:58;16.50;99.90
27759;DHT22;15148;48.972;12.794;2023-09-30T09:17:00;16.50;99.90
27759;DHT22;15148;48.972;12.794;2023-09-30T09:22:03;16.70;99.90
27759;DHT22;15148;48.972;12.794;2023-09-30T09:27:12;16.80;99.90
27759;DHT22;15148;48.972;12.794;2023-09-30T09:32:15;16.80;99.90
27759;DHT22;15148;48.972;12.794;2023-09-30T09:37:21;16.80;99.90
27759;DHT22;15148;48.972;12.794;2023-09-30T09:42:33;16.80;99.90
27759;DHT22;15148;48.972;12.794;2023-09-30T09:47:38;16.90;99.90
27759;DHT22;15148;48.972;12.794;2023-09-30T09:52:42;16.80;99.90
27759;DHT22;15148;48.972;12.794;2023-09-30T09:57:47;16.80;99.90
27759;DHT22;15148;48.972;12.794;2023-09-30T10:02:51;16.90;99.90
27759;DHT22;15148;48.972;12.794;2023-09-30T10:08:07;16.90;99.90
27759;DHT22;15148;48.972;12.794;2023-09-30T10:13:09;17.00;99.90
27759;DHT22;15148;48.972;12.794;2023-09-30T10:24:31;16.90;99.90
27759;DHT22;15148;48.972;12.794;2023-09-30T10:29:40;16.90;99.90
27759;DHT22;15148;48.972;12.794;2023-09-30T10:34:49;16.90;99.90
27759;DHT22;15148;48.972;12.794;2023-09-30T10:39:56;16.90;99.90
27759;DHT22;15148;48.972;12.794;2023-09-30T10:44:58;17.00;99.90
27759;DHT22;15148;48.972;12.794;2023-09-30T10:50:00;17.10;99.90
27759;DHT22;15148;48.972;12.794;2023-09-30T10:55:03;17.20;99.90
27759;DHT22;15148;48.972;12.794;2023-09-30T11:00:13;17.40;99.90
27759;DHT22;15148;48.972;12.794;2023-09-30T11:05:18;17.50;99.90
27759;DHT22;15148;48.972;12.794;2023-09-30T11:10:50;17.50;99.90
27759;DHT22;15148;48.972;12.794;2023-09-30T11:16:00;17.40;99.90
27759;DHT22;15148;48.972;12.794;2023-09-30T11:26:07;17.30;99.90
27759;DHT22;15148;48.972;12.794;2023-09-30T11:31:10;17.40;99.90
27759;DHT22;15148;48.972;12.794;2023-09-30T11:36:13;17.40;99.90
27759;DHT22;15148;48.972;12.794;2023-09-30T11:41:17;17.40;99.90
27759;DHT22;15148;48.972;12.794;2023-09-30T11:46:22;17.40;99.90
27759;DHT22;15148;48.972;12.794;2023-09-30T11:51:24;17.50;99.90
27759;DHT22;15148;48.972;12.794;2023-09-30T11:56:26;17.40;99.90
27759;DHT22;15148;48.972;12.794;2023-09-30T12:01:31;17.20;99.90
27759;DHT22;15148;48.972;12.794;2023-09-30T12:06:33;17.10;99.90
27759;DHT22;15148;48.972;12.794;2023-09-30T12:11:36;17.20;99.90
27759;DHT22;15148;48.972;12.794;2023-09-30T12:16:38;17.30;99.90
27759;DHT22;15148;48.972;12.794;2023-09-30T12:21:41;17.40;99.90
27759;DHT22;15148;48.972;12.794;2023-09-30T12:26:44;17.30;99.90
27759;DHT22;15148;48.972;12.794;2023-09-30T12:31:51;17.30;99.90
27759;DHT22;15148;48.972;12.794;2023-09-30T12:36:55;17.20;99.90
27759;DHT22;15148;48.972;12.794;2023-09-30T12:42:02;17.20;99.90
27759;DHT22;15148;48.972;12.794;2023-09-30T12:47:11;17.00;99.90
27759;DHT22;15148;48.972;12.794;2023-09-30T12:52:13;17.00;99.90
27759;DHT22;15148;48.972;12.794;2023-09-30T12:57:16;17.10;99.90
27759;DHT22;15148;48.972;12.794;2023-09-30T13:02:19;17.10;99.90
27759;DHT22;15148;48.972;12.794;2023-09-30T13:07:23;17.00;99.90
27759;DHT22;15148;48.972;12.794;2023-09-30T13:12:30;17.00;99.90
27759;DHT22;15148;48.972;12.794;2023-09-30T13:17:35;17.00;99.90
27759;DHT22;15148;48.972;12.794;2023-09-30T13:22:38;17.00;99.90
27759;DHT22;15148;48.972;12.794;2023-09-30T13:27:40;16.80;99.90
27759;DHT22;15148;48.972;12.794;2023-09-30T13:32:42;16.80;99.90
27759;DHT22;15148;48.972;12.794;2023-09-30T13:37:44;16.90;99.90
27759;DHT22;15148;48.972;12.794;2023-09-30T13:42:46;16.80;99.90
27759;DHT22;15148;48.972;12.794;2023-09-30T13:47:53;16.80;99.90
27759;DHT22;15148;48.972;12.794;2023-09-30T13:52:55;16.90;99.90
27759;DHT22;15148;48.972;12.794;2023-09-30T13:57:57;16.90;99.90
27759;DHT22;15148;48.972;12.794;2023-09-30T14:03:02;16.90;99.90
27759;DHT22;15148;48.972;12.794;2023-09-30T14:08:04;16.90;99.90
27759;DHT22;15148;48.972;12.794;2023-09-30T14:13:09;16.80;99.90
27759;DHT22;15148;48.972;12.794;2023-09-30T14:18:11;16.80;99.90
27759;DHT22;15148;48.972;12.794;2023-09-30T14:23:13;16.80;99.90
27759;DHT22;15148;48.972;12.794;2023-09-30T14:28:15;17.00;99.90
27759;DHT22;15148;48.972;12.794;2023-09-30T14:33:17;17.00;99.90
27759;DHT22;15148;48.972;12.794;2023-09-30T14:38:20;17.00;99.90
27759;DHT22;15148;48.972;12.794;2023-09-30T14:43:22;17.00;99.90
27759;DHT22;15148;48.972;12.794;2023-09-30T14:48:27;16.90;99.90
27759;DHT22;15148;48.972;12.794;2023-09-30T14:53:29;16.90;99.90
27759;DHT22;15148;48.972;12.794;2023-09-30T14:58:32;16.90;99.90
27759;DHT22;15148;48.972;12.794;2023-09-30T15:03:35;17.00;99.90
27759;DHT22;15148;48.972;12.794;2023-09-30T15:08:39;16.90;99.90
27759;DHT22;15148;48.972;12.794;2023-09-30T15:13:41;16.80;99.90
27759;DHT22;15148;48.972;12.794;2023-09-30T15:18:46;16.70;99.90
27759;DHT22;15148;48.972;12.794;2023-09-30T15:23:48;16.70;99.90
27759;DHT22;15148;48.972;12.794;2023-09-30T15:28:50;16.50;99.90
27759;DHT22;15148;48.972;12.794;2023-09-30T15:33:53;16.40;99.90
27759;DHT22;15148;48.972;12.794;2023-09-30T15:38:55;16.30;99.90
27759;DHT22;15148;48.972;12.794;2023-09-30T15:44:00;16.20;99.90
27759;DHT22;15148;48.972;12.794;2023-09-30T15:49:03;16.10;99.90
27759;DHT22;15148;48.972;12.794;2023-09-30T15:54:06;16.00;99.90
27759;DHT22;15148;48.972;12.794;2023-09-30T15:59:08;15.90;99.90
27759;DHT22;15148;48.972;12.794;2023-09-30T16:04:10;15.80;99.90
27759;DHT22;15148;48.972;12.794;2023-09-30T16:09:13;15.80;99.90
27759;DHT22;15148;48.972;12.794;2023-09-30T16:14:15;15.60;99.90
27759;DHT22;15148;48.972;12.794;2023-09-30T16:19:18;15.50;99.90
27759;DHT22;15148;48.972;12.794;2023-09-30T16:24:20;15.40;99.90
27759;DHT22;15148;48.972;12.794;2023-09-30T16:29:22;15.40;99.90
27759;DHT22;15148;48.972;12.794;2023-09-30T16:34:24;15.30;99.90
27759;DHT22;15148;48.972;12.794;2023-09-30T16:39:26;15.30;99.90
27759;DHT22;15148;48.972;12.794;2023-09-30T16:44:28;15.10;99.90
27759;DHT22;15148;48.972;12.794;2023-09-30T16:49:31;15.10;99.90
27759;DHT22;15148;48.972;12.794;2023-09-30T16:54:33;15.00;99.90
27759;DHT22;15148;48.972;12.794;2023-09-30T16:59:35;14.90;99.90
27759;DHT22;15148;48.972;12.794;2023-09-30T17:04:44;14.70;99.90
27759;DHT22;15148;48.972;12.794;2023-09-30T17:09:46;14.60;99.90
27759;DHT22;15148;48.972;12.794;2023-09-30T17:14:48;14.50;99.90
27759;DHT22;15148;48.972;12.794;2023-09-30T17:19:50;14.40;99.90
27759;DHT22;15148;48.972;12.794;2023-09-30T17:24:52;14.30;99.90
27759;DHT22;15148;48.972;12.794;2023-09-30T17:29:54;14.20;99.90
27759;DHT22;15148;48.972;12.794;2023-09-30T17:34:56;14.10;99.90
27759;DHT22;15148;48.972;12.794;2023-09-30T17:39:57;14.00;99.90
27759;DHT22;15148;48.972;12.794;2023-09-30T17:44:59;13.90;99.90
27759;DHT22;15148;48.972;12.794;2023-09-30T17:50:01;13.90;99.90
27759;DHT22;15148;48.972;12.794;2023-09-30T17:55:07;13.80;99.90
27759;DHT22;15148;48.972;12.794;2023-09-30T18:00:12;13.80;99.90
27759;DHT22;15148;48.972;12.794;2023-09-30T18:05:15;13.80;99.90
27759;DHT22;15148;48.972;12.794;2023-09-30T18:10:17;13.80;99.90
27759;DHT22;15148;48.972;12.794;2023-09-30T18:15:22;13.70;99.90
27759;DHT22;15148;48.972;12.794;2023-09-30T18:20:24;13.60;99.90
27759;DHT22;15148;48.972;12.794;2023-09-30T18:25:26;13.60;99.90
27759;DHT22;15148;48.972;12.794;2023-09-30T18:30:30;13.50;99.90
27759;DHT22;15148;48.972;12.794;2023-09-30T18:35:31;13.50;99.90
27759;DHT22;15148;48.972;12.794;2023-09-30T18:40:34;13.40;99.90
27759;DHT22;15148;48.972;12.794;2023-09-30T18:45:37;13.30;99.90
27759;DHT22;15148;48.972;12.794;2023-09-30T18:50:42;13.30;99.90
27759;DHT22;15148;48.972;12.794;2023-09-30T18:55:46;13.20;99.90
27759;DHT22;15148;48.972;12.794;2023-09-30T19:00:51;13.20;99.90
27759;DHT22;15148;48.972;12.794;2023-09-30T19:05:54;13.20;99.90
27759;DHT22;15148;48.972;12.794;2023-09-30T19:11:00;13.20;99.90
27759;DHT22;15148;48.972;12.794;2023-09-30T19:16:03;13.20;99.90
27759;DHT22;15148;48.972;12.794;2023-09-30T19:21:07;13.20;99.90
27759;DHT22;15148;48.972;12.794;2023-09-30T19:26:11;13.20;99.90
27759;DHT22;15148;48.972;12.794;2023-09-30T19:31:17;13.20;99.90
27759;DHT22;15148;48.972;12.794;2023-09-30T19:36:19;13.10;99.90
27759;DHT22;15148;48.972;12.794;2023-09-30T19:41:21;13.10;99.90
27759;DHT22;15148;48.972;12.794;2023-09-30T19:46:24;13.00;99.90
27759;DHT22;15148;48.972;12.794;2023-09-30T19:51:26;12.90;99.90
27759;DHT22;15148;48.972;12.794;2023-09-30T19:56:28;12.90;99.90
27759;DHT22;15148;48.972;12.794;2023-09-30T20:01:30;12.90;99.90
27759;DHT22;15148;48.972;12.794;2023-09-30T20:06:32;12.80;99.90
27759;DHT22;15148;48.972;12.794;2023-09-30T20:11:36;12.60;99.90
27759;DHT22;15148;48.972;12.794;2023-09-30T20:16:38;12.60;99.90
27759;DHT22;15148;48.972;12.794;2023-09-30T20:21:42;12.60;99.90
27759;DHT22;15148;48.972;12.794;2023-09-30T20:26:44;12.40;99.90
27759;DHT22;15148;48.972;12.794;2023-09-30T20:31:47;12.30;99.90
27759;DHT22;15148;48.972;12.794;2023-09-30T20:36:49;12.20;99.90
27759;DHT22;15148;48.972;12.794;2023-09-30T20:41:55;12.20;99.90
27759;DHT22;15148;48.972;12.794;2023-09-30T20:46:57;12.10;99.90
27759;DHT22;15148;48.972;12.794;2023-09-30T20:52:00;12.10;99.90
27759;DHT22;15148;48.972;12.794;2023-09-30T20:57:02;12.10;99.90
27759;DHT22;15148;48.972;12.794;2023-09-30T21:02:04;12.10;99.90
27759;DHT22;15148;48.972;12.794;2023-09-30T21:07:06;12.10;99.90
27759;DHT22;15148;48.972;12.794;2023-09-30T21:12:08;12.00;99.90
27759;DHT22;15148;48.972;12.794;2023-09-30T21:17:10;12.00;99.90
27759;DHT22;15148;48.972;12.794;2023-09-30T21:22:12;11.90;99.90
27759;DHT22;15148;48.972;12.794;2023-09-30T21:27:14;11.80;99.90
27759;DHT22;15148;48.972;12.794;2023-09-30T21:32:17;11.80;99.90
27759;DHT22;15148;48.972;12.794;2023-09-30T21:37:18;11.70;99.90
27759;DHT22;15148;48.972;12.794;2023-09-30T21:42:20;11.70;99.90
27759;DHT22;15148;48.972;12.794;2023-09-30T21:47:22;11.60;99.90
27759;DHT22;15148;48.972;12.794;2023-09-30T21:52:24;11.60;99.90
27759;DHT22;15148;48.972;12.794;2023-09-30T21:57:27;11.50;99.90
27759;DHT22;15148;48.972;12.794;2023-09-30T22:02:29;11.50;99.90
27759;DHT22;15148;48.972;12.794;2023-09-30T22:07:31;11.40;99.90
27759;DHT22;15148;48.972;12.794;2023-09-30T22:12:36;11.30;99.90
27759;DHT22;15148;48.972;12.794;2023-09-30T22:17:38;11.30;99.90
27759;DHT22;15148;48.972;12.794;2023-09-30T22:22:42;11.20;99.90
27759;DHT22;15148;48.972;12.794;2023-09-30T22:27:43;11.20;99.90
27759;DHT22;15148;48.972;12.794;2023-09-30T22:32:45;11.20;99.90
27759;DHT22;15148;48.972;12.794;2023-09-30T22:37:48;11.10;99.90
27759;DHT22;15148;48.972;12.794;2023-09-30T22:42:50;11.00;99.90
27759;DHT22;15148;48.972;12.794;2023-09-30T22:47:52;11.00;99.90
27759;DHT22;15148;48.972;12.794;2023-09-30T22:52:54;11.00;99.90
27759;DHT22;15148;48.972;12.794;2023-09-30T22:57:57;10.90;99.90
27759;DHT22;15148;48.972;12.794;2023-09-30T23:02:59;10.90;99.90
27759;DHT22;15148;48.972;12.794;2023-09-30T23:08:01;10.80;99.90
27759;DHT22;15148;48.972;12.794;2023-09-30T23:13:03;10.90;99.90
27759;DHT22;15148;48.972;12.794;2023-09-30T23:18:05;10.80;99.90
27759;DHT22;15148;48.972;12.794;2023-09-30T23:23:07;10.80;99.90
27759;DHT22;15148;48.972;12.794;2023-09-30T23:28:10;10.80;99.90
27759;DHT22;15148;48.972;12.794;2023-09-30T23:33:12;10.80;99.90
27759;DHT22;15148;48.972;12.794;2023-09-30T23:38:14;10.90;99.90
27759;DHT22;15148;48.972;12.794;2023-09-30T23:43:17;10.90;99.90
27759;DHT22;15148;48.972;12.794;2023-09-30T23:48:19;10.90;99.90
27759;DHT22;15148;48.972;12.794;2023-09-30T23:53:23;10.90;99.90
27759;DHT22;15148;48.972;12.794;2023-09-30T23:58:26;10.90;99.90
